sensor_id;sensor_type;location;lat;lon;timestamp;temperature;humidity
16154;DHT22;8182;55.648;13.208;2024-01-11T00:02:05;-0.50;1.00
16154;DHT22;8182;55.648;13.208;2024-01-11T00:04:32;-0.50;1.00
16154;DHT22;8182;55.648;13.208;2024-01-11T00:06:59;-0.50;1.00
16154;DHT22;8182;55.648;13.208;2024-01-11T00:09:26;-0.50;1.00
16154;DHT22;8182;55.648;13.208;2024-01-11T00:11:52;-0.30;1.00
16154;DHT22;8182;55.648;13.208;2024-01-11T00:14:20;-0.50;1.00
16154;DHT22;8182;55.648;13.208;2024-01-11T00:16:49;-0.40;1.00
16154;DHT22;8182;55.648;13.208;2024-01-11T00:19:17;-0.40;1.00
16154;DHT22;8182;55.648;13.208;2024-01-11T00:21:44;-0.40;1.00
16154;DHT22;8182;55.648;13.208;2024-01-11T00:24:11;-0.40;1.00
16154;DHT22;8182;55.648;13.208;2024-01-11T00:26:41;-0.30;1.00
16154;DHT22;8182;55.648;13.208;2024-01-11T00:29:08;-0.40;1.00
16154;DHT22;8182;55.648;13.208;2024-01-11T00:31:35;-0.40;1.00
16154;DHT22;8182;55.648;13.208;2024-01-11T00:34:04;-0.30;1.00
16154;DHT22;8182;55.648;13.208;2024-01-11T00:36:31;-0.30;1.00
16154;DHT22;8182;55.648;13.208;2024-01-11T00:39:00;-0.30;1.00
16154;DHT22;8182;55.648;13.208;2024-01-11T00:41:27;-0.30;1.00
16154;DHT22;8182;55.648;13.208;2024-01-11T00:43:54;-0.30;1.00
16154;DHT22;8182;55.648;13.208;2024-01-11T00:46:22;-0.30;1.00
16154;DHT22;8182;55.648;13.208;2024-01-11T00:48:49;-0.30;1.00
16154;DHT22;8182;55.648;13.208;2024-01-11T00:51:17;-0.20;1.00
16154;DHT22;8182;55.648;13.208;2024-01-11T00:53:44;-0.20;1.00
16154;DHT22;8182;55.648;13.208;2024-01-11T00:56:19;-0.20;1.00
16154;DHT22;8182;55.648;13.208;2024-01-11T00:58:49;-0.20;1.00
16154;DHT22;8182;55.648;13.208;2024-01-11T01:01:16;-0.20;1.00
16154;DHT22;8182;55.648;13.208;2024-01-11T01:03:43;-0.20;1.00
16154;DHT22;8182;55.648;13.208;2024-01-11T01:06:10;-0.20;1.00
16154;DHT22;8182;55.648;13.208;2024-01-11T01:08:38;-0.20;1.00
16154;DHT22;8182;55.648;13.208;2024-01-11T01:11:05;-0.20;1.00
16154;DHT22;8182;55.648;13.208;2024-01-11T01:13:33;-0.10;1.00
16154;DHT22;8182;55.648;13.208;2024-01-11T01:16:00;-0.10;1.00
16154;DHT22;8182;55.648;13.208;2024-01-11T01:18:27;-0.10;1.00
16154;DHT22;8182;55.648;13.208;2024-01-11T01:20:54;-0.10;1.00
16154;DHT22;8182;55.648;13.208;2024-01-11T01:23:21;-0.10;1.00
16154;DHT22;8182;55.648;13.208;2024-01-11T01:25:55;-0.10;1.00
16154;DHT22;8182;55.648;13.208;2024-01-11T01:28:23;-0.10;1.00
16154;DHT22;8182;55.648;13.208;2024-01-11T01:31:01;-0.10;1.00
16154;DHT22;8182;55.648;13.208;2024-01-11T01:33:28;-0.10;1.00
16154;DHT22;8182;55.648;13.208;2024-01-11T01:35:55;-0.10;1.00
16154;DHT22;8182;55.648;13.208;2024-01-11T01:38:23;-0.10;1.00
16154;DHT22;8182;55.648;13.208;2024-01-11T01:40:52;0.00;1.00
16154;DHT22;8182;55.648;13.208;2024-01-11T01:43:20;-0.10;1.00
16154;DHT22;8182;55.648;13.208;2024-01-11T01:45:47;-0.10;1.00
16154;DHT22;8182;55.648;13.208;2024-01-11T01:48:14;-0.10;1.00
16154;DHT22;8182;55.648;13.208;2024-01-11T01:50:41;0.00;1.00
16154;DHT22;8182;55.648;13.208;2024-01-11T01:53:11;0.00;1.00
16154;DHT22;8182;55.648;13.208;2024-01-11T01:55:38;0.00;1.00
16154;DHT22;8182;55.648;13.208;2024-01-11T01:58:05;0.00;1.00
16154;DHT22;8182;55.648;13.208;2024-01-11T02:00:34;0.00;1.00
16154;DHT22;8182;55.648;13.208;2024-01-11T02:03:11;0.20;1.00
16154;DHT22;8182;55.648;13.208;2024-01-11T02:05:39;0.10;1.00
16154;DHT22;8182;55.648;13.208;2024-01-11T02:08:07;0.10;1.00
16154;DHT22;8182;55.648;13.208;2024-01-11T02:10:37;0.20;1.00
16154;DHT22;8182;55.648;13.208;2024-01-11T02:13:04;0.20;1.00
16154;DHT22;8182;55.648;13.208;2024-01-11T02:15:39;0.10;1.00
16154;DHT22;8182;55.648;13.208;2024-01-11T02:18:06;0.20;1.00
16154;DHT22;8182;55.648;13.208;2024-01-11T02:20:33;0.20;1.00
16154;DHT22;8182;55.648;13.208;2024-01-11T02:23:05;0.20;1.00
16154;DHT22;8182;55.648;13.208;2024-01-11T02:25:43;0.20;1.00
16154;DHT22;8182;55.648;13.208;2024-01-11T02:28:10;0.30;99.90
16154;DHT22;8182;55.648;13.208;2024-01-11T02:30:37;0.40;99.90
16154;DHT22;8182;55.648;13.208;2024-01-11T02:33:04;0.40;99.90
16154;DHT22;8182;55.648;13.208;2024-01-11T02:35:32;0.40;1.00
16154;DHT22;8182;55.648;13.208;2024-01-11T02:38:00;0.40;1.00
16154;DHT22;8182;55.648;13.208;2024-01-11T02:40:27;0.40;99.90
16154;DHT22;8182;55.648;13.208;2024-01-11T02:42:57;0.40;99.90
16154;DHT22;8182;55.648;13.208;2024-01-11T02:45:25;0.40;99.90
16154;DHT22;8182;55.648;13.208;2024-01-11T02:47:58;0.40;1.00
16154;DHT22;8182;55.648;13.208;2024-01-11T02:50:24;0.40;1.00
16154;DHT22;8182;55.648;13.208;2024-01-11T02:52:51;0.40;1.00
16154;DHT22;8182;55.648;13.208;2024-01-11T02:55:23;0.30;99.90
16154;DHT22;8182;55.648;13.208;2024-01-11T02:57:50;0.40;99.90
16154;DHT22;8182;55.648;13.208;2024-01-11T03:00:19;0.50;99.90
16154;DHT22;8182;55.648;13.208;2024-01-11T03:02:47;0.50;1.00
16154;DHT22;8182;55.648;13.208;2024-01-11T03:05:14;0.50;1.00
16154;DHT22;8182;55.648;13.208;2024-01-11T03:07:41;0.50;1.00
16154;DHT22;8182;55.648;13.208;2024-01-11T03:10:08;0.50;1.00
16154;DHT22;8182;55.648;13.208;2024-01-11T03:12:36;0.50;1.00
16154;DHT22;8182;55.648;13.208;2024-01-11T03:15:03;0.50;99.90
16154;DHT22;8182;55.648;13.208;2024-01-11T03:17:33;0.50;99.90
16154;DHT22;8182;55.648;13.208;2024-01-11T03:20:02;0.50;99.90
16154;DHT22;8182;55.648;13.208;2024-01-11T03:22:30;0.50;99.90
16154;DHT22;8182;55.648;13.208;2024-01-11T03:24:57;0.50;1.00
16154;DHT22;8182;55.648;13.208;2024-01-11T03:27:24;0.50;25.70
16154;DHT22;8182;55.648;13.208;2024-01-11T03:29:54;0.50;99.90
16154;DHT22;8182;55.648;13.208;2024-01-11T03:32:21;0.60;1.00
16154;DHT22;8182;55.648;13.208;2024-01-11T03:34:49;0.60;1.00
16154;DHT22;8182;55.648;13.208;2024-01-11T03:37:18;0.50;1.00
16154;DHT22;8182;55.648;13.208;2024-01-11T03:39:45;0.50;1.00
16154;DHT22;8182;55.648;13.208;2024-01-11T03:42:12;0.60;1.00
16154;DHT22;8182;55.648;13.208;2024-01-11T03:44:42;0.60;1.00
16154;DHT22;8182;55.648;13.208;2024-01-11T03:47:09;0.70;92.30
16154;DHT22;8182;55.648;13.208;2024-01-11T03:49:35;0.60;99.90
16154;DHT22;8182;55.648;13.208;2024-01-11T03:52:05;0.60;99.90
16154;DHT22;8182;55.648;13.208;2024-01-11T03:54:32;0.60;99.90
16154;DHT22;8182;55.648;13.208;2024-01-11T03:56:59;0.60;99.90
16154;DHT22;8182;55.648;13.208;2024-01-11T03:59:26;0.60;99.90
16154;DHT22;8182;55.648;13.208;2024-01-11T04:01:53;0.60;99.90
16154;DHT22;8182;55.648;13.208;2024-01-11T04:04:21;0.60;99.90
16154;DHT22;8182;55.648;13.208;2024-01-11T04:06:48;0.60;99.90
16154;DHT22;8182;55.648;13.208;2024-01-11T04:09:19;0.60;99.90
16154;DHT22;8182;55.648;13.208;2024-01-11T04:11:46;0.60;99.90
16154;DHT22;8182;55.648;13.208;2024-01-11T04:14:13;0.60;99.90
16154;DHT22;8182;55.648;13.208;2024-01-11T04:16:40;0.60;99.90
16154;DHT22;8182;55.648;13.208;2024-01-11T04:19:16;0.60;1.00
16154;DHT22;8182;55.648;13.208;2024-01-11T04:21:43;0.50;1.00
16154;DHT22;8182;55.648;13.208;2024-01-11T04:24:10;0.60;1.00
16154;DHT22;8182;55.648;13.208;2024-01-11T04:26:43;0.60;1.00
16154;DHT22;8182;55.648;13.208;2024-01-11T04:29:10;0.60;1.00
16154;DHT22;8182;55.648;13.208;2024-01-11T04:31:38;0.60;1.00
16154;DHT22;8182;55.648;13.208;2024-01-11T04:34:05;0.60;1.00
16154;DHT22;8182;55.648;13.208;2024-01-11T04:36:41;0.60;1.00
16154;DHT22;8182;55.648;13.208;2024-01-11T04:39:08;0.60;1.00
16154;DHT22;8182;55.648;13.208;2024-01-11T04:41:35;0.60;1.00
16154;DHT22;8182;55.648;13.208;2024-01-11T04:44:04;0.60;1.00
16154;DHT22;8182;55.648;13.208;2024-01-11T04:46:31;0.50;1.00
16154;DHT22;8182;55.648;13.208;2024-01-11T04:48:58;0.60;1.00
16154;DHT22;8182;55.648;13.208;2024-01-11T04:51:26;0.60;1.00
16154;DHT22;8182;55.648;13.208;2024-01-11T04:53:53;0.60;1.00
16154;DHT22;8182;55.648;13.208;2024-01-11T04:56:20;0.60;1.00
16154;DHT22;8182;55.648;13.208;2024-01-11T04:58:47;0.60;99.90
16154;DHT22;8182;55.648;13.208;2024-01-11T05:01:18;0.60;99.90
16154;DHT22;8182;55.648;13.208;2024-01-11T05:03:47;0.60;1.00
16154;DHT22;8182;55.648;13.208;2024-01-11T05:06:22;0.60;99.90
16154;DHT22;8182;55.648;13.208;2024-01-11T05:08:51;0.60;26.30
16154;DHT22;8182;55.648;13.208;2024-01-11T05:11:22;0.60;1.00
16154;DHT22;8182;55.648;13.208;2024-01-11T05:13:50;0.50;99.90
16154;DHT22;8182;55.648;13.208;2024-01-11T05:16:28;0.60;1.00
16154;DHT22;8182;55.648;13.208;2024-01-11T05:18:56;0.70;1.00
16154;DHT22;8182;55.648;13.208;2024-01-11T05:21:26;0.60;1.00
16154;DHT22;8182;55.648;13.208;2024-01-11T05:23:53;0.60;1.00
16154;DHT22;8182;55.648;13.208;2024-01-11T05:26:20;0.60;1.00
16154;DHT22;8182;55.648;13.208;2024-01-11T05:28:57;0.60;1.00
16154;DHT22;8182;55.648;13.208;2024-01-11T05:31:24;0.60;1.00
16154;DHT22;8182;55.648;13.208;2024-01-11T05:33:54;0.60;1.00
16154;DHT22;8182;55.648;13.208;2024-01-11T05:36:21;0.80;99.90
16154;DHT22;8182;55.648;13.208;2024-01-11T05:38:48;0.60;1.00
16154;DHT22;8182;55.648;13.208;2024-01-11T05:41:15;0.60;99.90
16154;DHT22;8182;55.648;13.208;2024-01-11T05:43:42;0.60;99.90
16154;DHT22;8182;55.648;13.208;2024-01-11T05:46:12;0.70;1.00
16154;DHT22;8182;55.648;13.208;2024-01-11T05:48:39;0.60;99.90
16154;DHT22;8182;55.648;13.208;2024-01-11T05:51:08;0.60;99.90
16154;DHT22;8182;55.648;13.208;2024-01-11T05:53:35;0.60;1.00
16154;DHT22;8182;55.648;13.208;2024-01-11T05:56:06;0.60;1.00
16154;DHT22;8182;55.648;13.208;2024-01-11T05:58:39;0.50;1.00
16154;DHT22;8182;55.648;13.208;2024-01-11T06:01:09;0.50;99.90
16154;DHT22;8182;55.648;13.208;2024-01-11T06:03:42;0.50;99.90
16154;DHT22;8182;55.648;13.208;2024-01-11T06:06:10;0.50;99.90
16154;DHT22;8182;55.648;13.208;2024-01-11T06:08:40;0.50;99.90
16154;DHT22;8182;55.648;13.208;2024-01-11T06:11:11;0.60;99.90
16154;DHT22;8182;55.648;13.208;2024-01-11T06:13:40;0.60;99.90
16154;DHT22;8182;55.648;13.208;2024-01-11T06:16:07;0.50;99.90
16154;DHT22;8182;55.648;13.208;2024-01-11T06:18:34;0.50;99.90
16154;DHT22;8182;55.648;13.208;2024-01-11T06:21:04;0.50;99.90
16154;DHT22;8182;55.648;13.208;2024-01-11T06:23:33;0.50;99.90
16154;DHT22;8182;55.648;13.208;2024-01-11T06:26:00;0.50;99.90
16154;DHT22;8182;55.648;13.208;2024-01-11T06:28:27;0.50;99.90
16154;DHT22;8182;55.648;13.208;2024-01-11T06:30:59;0.40;99.90
16154;DHT22;8182;55.648;13.208;2024-01-11T06:33:33;0.50;99.90
16154;DHT22;8182;55.648;13.208;2024-01-11T06:36:03;0.50;99.90
16154;DHT22;8182;55.648;13.208;2024-01-11T06:38:30;0.40;99.90
16154;DHT22;8182;55.648;13.208;2024-01-11T06:41:01;0.40;99.90
16154;DHT22;8182;55.648;13.208;2024-01-11T06:43:29;0.40;99.90
16154;DHT22;8182;55.648;13.208;2024-01-11T06:46:01;0.40;99.90
16154;DHT22;8182;55.648;13.208;2024-01-11T06:48:44;0.40;99.90
16154;DHT22;8182;55.648;13.208;2024-01-11T06:51:14;0.40;99.90
16154;DHT22;8182;55.648;13.208;2024-01-11T06:53:41;0.40;1.00
16154;DHT22;8182;55.648;13.208;2024-01-11T06:56:14;0.40;1.00
16154;DHT22;8182;55.648;13.208;2024-01-11T06:58:41;0.40;1.00
16154;DHT22;8182;55.648;13.208;2024-01-11T07:01:08;0.30;1.00
16154;DHT22;8182;55.648;13.208;2024-01-11T07:03:35;0.30;1.00
16154;DHT22;8182;55.648;13.208;2024-01-11T07:06:04;0.30;1.00
16154;DHT22;8182;55.648;13.208;2024-01-11T07:08:34;0.30;1.00
16154;DHT22;8182;55.648;13.208;2024-01-11T07:11:01;0.30;1.00
16154;DHT22;8182;55.648;13.208;2024-01-11T07:13:28;0.30;1.00
16154;DHT22;8182;55.648;13.208;2024-01-11T07:15:57;0.20;1.00
16154;DHT22;8182;55.648;13.208;2024-01-11T07:18:24;0.20;1.00
16154;DHT22;8182;55.648;13.208;2024-01-11T07:20:51;0.20;1.00
16154;DHT22;8182;55.648;13.208;2024-01-11T07:23:20;0.20;1.00
16154;DHT22;8182;55.648;13.208;2024-01-11T07:25:47;0.20;1.00
16154;DHT22;8182;55.648;13.208;2024-01-11T07:28:14;0.20;1.00
16154;DHT22;8182;55.648;13.208;2024-01-11T07:30:42;0.20;1.00
16154;DHT22;8182;55.648;13.208;2024-01-11T07:33:10;0.10;1.00
16154;DHT22;8182;55.648;13.208;2024-01-11T07:35:37;0.10;1.00
16154;DHT22;8182;55.648;13.208;2024-01-11T07:38:04;0.10;1.00
16154;DHT22;8182;55.648;13.208;2024-01-11T07:40:32;0.10;1.00
16154;DHT22;8182;55.648;13.208;2024-01-11T07:42:59;0.10;1.00
16154;DHT22;8182;55.648;13.208;2024-01-11T07:45:26;0.10;1.00
16154;DHT22;8182;55.648;13.208;2024-01-11T07:47:53;0.00;1.00
16154;DHT22;8182;55.648;13.208;2024-01-11T07:50:20;0.10;1.00
16154;DHT22;8182;55.648;13.208;2024-01-11T07:52:46;0.00;1.00
16154;DHT22;8182;55.648;13.208;2024-01-11T07:55:13;-0.10;1.00
16154;DHT22;8182;55.648;13.208;2024-01-11T07:57:41;0.00;1.00
16154;DHT22;8182;55.648;13.208;2024-01-11T08:00:08;0.00;1.00
16154;DHT22;8182;55.648;13.208;2024-01-11T08:02:35;0.00;1.00
16154;DHT22;8182;55.648;13.208;2024-01-11T08:05:03;-0.10;1.00
16154;DHT22;8182;55.648;13.208;2024-01-11T08:07:31;0.00;1.00
16154;DHT22;8182;55.648;13.208;2024-01-11T08:09:58;0.00;1.00
16154;DHT22;8182;55.648;13.208;2024-01-11T08:12:25;-0.10;1.00
16154;DHT22;8182;55.648;13.208;2024-01-11T08:14:53;-0.10;1.00
16154;DHT22;8182;55.648;13.208;2024-01-11T08:17:20;0.00;1.00
16154;DHT22;8182;55.648;13.208;2024-01-11T08:19:47;-0.10;1.00
16154;DHT22;8182;55.648;13.208;2024-01-11T08:22:14;-0.10;1.00
16154;DHT22;8182;55.648;13.208;2024-01-11T08:24:42;-0.10;1.00
16154;DHT22;8182;55.648;13.208;2024-01-11T08:27:08;0.00;1.00
16154;DHT22;8182;55.648;13.208;2024-01-11T08:29:35;-0.10;1.00
16154;DHT22;8182;55.648;13.208;2024-01-11T08:32:18;0.00;1.00
16154;DHT22;8182;55.648;13.208;2024-01-11T08:34:45;0.00;1.00
16154;DHT22;8182;55.648;13.208;2024-01-11T08:37:12;0.10;1.00
16154;DHT22;8182;55.648;13.208;2024-01-11T08:39:40;0.00;1.00
16154;DHT22;8182;55.648;13.208;2024-01-11T08:42:07;0.00;1.00
16154;DHT22;8182;55.648;13.208;2024-01-11T08:44:34;0.00;1.00
16154;DHT22;8182;55.648;13.208;2024-01-11T08:47:02;-0.20;1.00
16154;DHT22;8182;55.648;13.208;2024-01-11T08:49:30;-0.10;1.00
16154;DHT22;8182;55.648;13.208;2024-01-11T08:51:58;-0.20;1.00
16154;DHT22;8182;55.648;13.208;2024-01-11T08:54:25;0.00;1.00
16154;DHT22;8182;55.648;13.208;2024-01-11T08:56:52;0.10;1.00
16154;DHT22;8182;55.648;13.208;2024-01-11T08:59:19;0.00;1.00
16154;DHT22;8182;55.648;13.208;2024-01-11T09:01:50;0.00;1.00
16154;DHT22;8182;55.648;13.208;2024-01-11T09:04:17;0.00;1.00
16154;DHT22;8182;55.648;13.208;2024-01-11T09:06:45;0.00;1.00
16154;DHT22;8182;55.648;13.208;2024-01-11T09:09:12;0.00;1.00
16154;DHT22;8182;55.648;13.208;2024-01-11T09:11:40;0.00;1.00
16154;DHT22;8182;55.648;13.208;2024-01-11T09:14:07;0.10;1.00
16154;DHT22;8182;55.648;13.208;2024-01-11T09:16:36;0.00;1.00
16154;DHT22;8182;55.648;13.208;2024-01-11T09:19:05;0.00;1.00
16154;DHT22;8182;55.648;13.208;2024-01-11T09:21:32;0.00;1.00
16154;DHT22;8182;55.648;13.208;2024-01-11T09:24:00;0.00;1.00
16154;DHT22;8182;55.648;13.208;2024-01-11T09:26:27;0.00;1.00
16154;DHT22;8182;55.648;13.208;2024-01-11T09:28:54;0.00;1.00
16154;DHT22;8182;55.648;13.208;2024-01-11T09:31:21;0.10;1.00
16154;DHT22;8182;55.648;13.208;2024-01-11T09:33:48;0.00;1.00
16154;DHT22;8182;55.648;13.208;2024-01-11T09:36:16;-0.10;1.00
16154;DHT22;8182;55.648;13.208;2024-01-11T09:38:43;-0.20;1.00
16154;DHT22;8182;55.648;13.208;2024-01-11T09:41:12;-0.10;1.00
16154;DHT22;8182;55.648;13.208;2024-01-11T09:43:41;0.00;1.00
16154;DHT22;8182;55.648;13.208;2024-01-11T09:46:09;0.10;1.00
16154;DHT22;8182;55.648;13.208;2024-01-11T09:48:38;0.20;1.00
16154;DHT22;8182;55.648;13.208;2024-01-11T09:51:09;0.10;1.00
16154;DHT22;8182;55.648;13.208;2024-01-11T09:53:38;0.20;1.00
16154;DHT22;8182;55.648;13.208;2024-01-11T09:56:07;0.20;1.00
16154;DHT22;8182;55.648;13.208;2024-01-11T09:58:36;0.30;1.00
16154;DHT22;8182;55.648;13.208;2024-01-11T10:01:09;0.20;1.00
16154;DHT22;8182;55.648;13.208;2024-01-11T10:03:36;0.10;1.00
16154;DHT22;8182;55.648;13.208;2024-01-11T10:06:03;0.10;1.00
16154;DHT22;8182;55.648;13.208;2024-01-11T10:08:35;0.00;1.00
16154;DHT22;8182;55.648;13.208;2024-01-11T10:11:02;0.10;1.00
16154;DHT22;8182;55.648;13.208;2024-01-11T10:13:30;0.20;1.00
16154;DHT22;8182;55.648;13.208;2024-01-11T10:16:09;0.10;1.00
16154;DHT22;8182;55.648;13.208;2024-01-11T10:18:39;0.00;1.00
16154;DHT22;8182;55.648;13.208;2024-01-11T10:21:06;0.20;1.00
16154;DHT22;8182;55.648;13.208;2024-01-11T10:23:34;0.20;1.00
16154;DHT22;8182;55.648;13.208;2024-01-11T10:26:01;0.20;1.00
16154;DHT22;8182;55.648;13.208;2024-01-11T10:28:29;0.20;1.00
16154;DHT22;8182;55.648;13.208;2024-01-11T10:30:56;0.20;1.00
16154;DHT22;8182;55.648;13.208;2024-01-11T10:33:25;0.30;1.00
16154;DHT22;8182;55.648;13.208;2024-01-11T10:35:52;0.40;1.00
16154;DHT22;8182;55.648;13.208;2024-01-11T10:38:20;0.40;1.00
16154;DHT22;8182;55.648;13.208;2024-01-11T10:40:49;0.30;1.00
16154;DHT22;8182;55.648;13.208;2024-01-11T10:43:20;0.40;1.00
16154;DHT22;8182;55.648;13.208;2024-01-11T10:45:48;0.40;1.00
16154;DHT22;8182;55.648;13.208;2024-01-11T10:48:21;0.40;1.00
16154;DHT22;8182;55.648;13.208;2024-01-11T10:50:54;0.50;1.00
16154;DHT22;8182;55.648;13.208;2024-01-11T10:53:28;0.50;1.00
16154;DHT22;8182;55.648;13.208;2024-01-11T10:56:08;0.60;1.00
16154;DHT22;8182;55.648;13.208;2024-01-11T10:58:40;0.60;99.90
16154;DHT22;8182;55.648;13.208;2024-01-11T11:01:08;0.40;99.90
16154;DHT22;8182;55.648;13.208;2024-01-11T11:03:36;0.50;99.90
16154;DHT22;8182;55.648;13.208;2024-01-11T11:06:06;0.50;99.90
16154;DHT22;8182;55.648;13.208;2024-01-11T11:08:34;0.60;1.00
16154;DHT22;8182;55.648;13.208;2024-01-11T11:11:03;0.60;1.00
16154;DHT22;8182;55.648;13.208;2024-01-11T11:13:35;0.60;1.00
16154;DHT22;8182;55.648;13.208;2024-01-11T11:16:03;0.60;1.00
16154;DHT22;8182;55.648;13.208;2024-01-11T11:18:34;0.60;1.00
16154;DHT22;8182;55.648;13.208;2024-01-11T11:21:09;0.60;1.00
16154;DHT22;8182;55.648;13.208;2024-01-11T11:23:37;0.70;99.90
16154;DHT22;8182;55.648;13.208;2024-01-11T11:26:06;0.60;99.90
16154;DHT22;8182;55.648;13.208;2024-01-11T11:28:33;0.70;99.90
16154;DHT22;8182;55.648;13.208;2024-01-11T11:31:03;0.70;99.90
16154;DHT22;8182;55.648;13.208;2024-01-11T11:33:30;0.60;99.90
16154;DHT22;8182;55.648;13.208;2024-01-11T11:35:58;0.60;99.90
16154;DHT22;8182;55.648;13.208;2024-01-11T11:38:27;0.60;99.90
16154;DHT22;8182;55.648;13.208;2024-01-11T11:40:57;0.60;99.90
16154;DHT22;8182;55.648;13.208;2024-01-11T11:43:26;0.70;99.90
16154;DHT22;8182;55.648;13.208;2024-01-11T11:45:54;0.70;99.90
16154;DHT22;8182;55.648;13.208;2024-01-11T11:48:47;0.70;99.90
16154;DHT22;8182;55.648;13.208;2024-01-11T11:51:15;0.70;99.90
16154;DHT22;8182;55.648;13.208;2024-01-11T11:53:45;0.70;99.90
16154;DHT22;8182;55.648;13.208;2024-01-11T11:56:13;0.70;99.90
16154;DHT22;8182;55.648;13.208;2024-01-11T11:58:42;0.70;99.90
16154;DHT22;8182;55.648;13.208;2024-01-11T12:01:10;0.80;99.90
16154;DHT22;8182;55.648;13.208;2024-01-11T12:03:40;0.70;99.90
16154;DHT22;8182;55.648;13.208;2024-01-11T12:06:09;0.70;99.90
16154;DHT22;8182;55.648;13.208;2024-01-11T12:08:36;0.70;99.90
16154;DHT22;8182;55.648;13.208;2024-01-11T12:11:06;0.70;99.90
16154;DHT22;8182;55.648;13.208;2024-01-11T12:13:34;0.70;99.90
16154;DHT22;8182;55.648;13.208;2024-01-11T12:16:02;0.70;99.90
16154;DHT22;8182;55.648;13.208;2024-01-11T12:18:29;0.70;99.90
16154;DHT22;8182;55.648;13.208;2024-01-11T12:20:56;0.80;99.90
16154;DHT22;8182;55.648;13.208;2024-01-11T12:23:23;0.80;99.90
16154;DHT22;8182;55.648;13.208;2024-01-11T12:25:50;0.80;99.90
16154;DHT22;8182;55.648;13.208;2024-01-11T12:28:19;0.80;99.90
16154;DHT22;8182;55.648;13.208;2024-01-11T12:30:46;0.80;99.90
16154;DHT22;8182;55.648;13.208;2024-01-11T12:33:16;0.80;99.90
16154;DHT22;8182;55.648;13.208;2024-01-11T12:35:43;0.80;99.90
16154;DHT22;8182;55.648;13.208;2024-01-11T12:38:11;0.90;99.90
16154;DHT22;8182;55.648;13.208;2024-01-11T12:40:38;0.80;99.90
16154;DHT22;8182;55.648;13.208;2024-01-11T12:43:06;0.80;99.90
16154;DHT22;8182;55.648;13.208;2024-01-11T12:45:35;0.70;99.90
16154;DHT22;8182;55.648;13.208;2024-01-11T12:48:03;0.70;99.90
16154;DHT22;8182;55.648;13.208;2024-01-11T12:50:35;0.80;99.90
16154;DHT22;8182;55.648;13.208;2024-01-11T12:53:08;0.70;99.90
16154;DHT22;8182;55.648;13.208;2024-01-11T12:55:38;0.70;99.90
16154;DHT22;8182;55.648;13.208;2024-01-11T12:58:08;0.60;99.90
16154;DHT22;8182;55.648;13.208;2024-01-11T13:00:38;0.60;99.90
16154;DHT22;8182;55.648;13.208;2024-01-11T13:03:06;0.60;99.90
16154;DHT22;8182;55.648;13.208;2024-01-11T13:05:35;0.60;99.90
16154;DHT22;8182;55.648;13.208;2024-01-11T13:08:02;0.70;99.90
16154;DHT22;8182;55.648;13.208;2024-01-11T13:10:30;0.60;99.90
16154;DHT22;8182;55.648;13.208;2024-01-11T13:12:58;0.60;99.90
16154;DHT22;8182;55.648;13.208;2024-01-11T13:15:27;0.60;99.90
16154;DHT22;8182;55.648;13.208;2024-01-11T13:17:56;0.50;99.90
16154;DHT22;8182;55.648;13.208;2024-01-11T13:20:23;0.50;99.90
16154;DHT22;8182;55.648;13.208;2024-01-11T13:23:00;0.40;99.90
16154;DHT22;8182;55.648;13.208;2024-01-11T13:25:39;0.40;99.90
16154;DHT22;8182;55.648;13.208;2024-01-11T13:28:05;0.40;99.90
16154;DHT22;8182;55.648;13.208;2024-01-11T13:30:32;0.30;1.00
16154;DHT22;8182;55.648;13.208;2024-01-11T13:33:01;0.30;1.00
16154;DHT22;8182;55.648;13.208;2024-01-11T13:35:28;0.30;1.00
16154;DHT22;8182;55.648;13.208;2024-01-11T13:37:55;0.30;1.00
16154;DHT22;8182;55.648;13.208;2024-01-11T13:40:22;0.40;1.00
16154;DHT22;8182;55.648;13.208;2024-01-11T13:45:17;0.20;1.00
16154;DHT22;8182;55.648;13.208;2024-01-11T13:47:44;0.20;1.00
16154;DHT22;8182;55.648;13.208;2024-01-11T13:50:12;0.10;1.00
16154;DHT22;8182;55.648;13.208;2024-01-11T13:52:40;0.00;1.00
16154;DHT22;8182;55.648;13.208;2024-01-11T13:55:08;0.10;1.00
16154;DHT22;8182;55.648;13.208;2024-01-11T13:57:36;0.10;1.00
16154;DHT22;8182;55.648;13.208;2024-01-11T14:00:04;0.00;1.00
16154;DHT22;8182;55.648;13.208;2024-01-11T14:02:32;0.00;1.00
16154;DHT22;8182;55.648;13.208;2024-01-11T14:05:00;-0.10;1.00
16154;DHT22;8182;55.648;13.208;2024-01-11T14:07:30;-0.10;1.00
16154;DHT22;8182;55.648;13.208;2024-01-11T14:09:57;-0.10;1.00
16154;DHT22;8182;55.648;13.208;2024-01-11T14:12:24;-0.10;1.00
16154;DHT22;8182;55.648;13.208;2024-01-11T14:14:51;-0.10;1.00
16154;DHT22;8182;55.648;13.208;2024-01-11T14:17:18;-0.20;1.00
16154;DHT22;8182;55.648;13.208;2024-01-11T14:19:44;-0.20;1.00
16154;DHT22;8182;55.648;13.208;2024-01-11T14:22:11;-0.20;1.00
16154;DHT22;8182;55.648;13.208;2024-01-11T14:24:40;-0.20;1.00
16154;DHT22;8182;55.648;13.208;2024-01-11T14:27:07;-0.30;1.00
16154;DHT22;8182;55.648;13.208;2024-01-11T14:29:35;-0.40;1.00
16154;DHT22;8182;55.648;13.208;2024-01-11T14:32:02;-0.50;1.00
16154;DHT22;8182;55.648;13.208;2024-01-11T14:34:41;-0.50;1.00
16154;DHT22;8182;55.648;13.208;2024-01-11T14:37:09;-0.60;1.00
16154;DHT22;8182;55.648;13.208;2024-01-11T14:39:36;-0.50;1.00
16154;DHT22;8182;55.648;13.208;2024-01-11T14:42:04;-0.50;1.00
16154;DHT22;8182;55.648;13.208;2024-01-11T14:44:34;-0.30;1.00
16154;DHT22;8182;55.648;13.208;2024-01-11T14:47:02;-0.30;1.00
16154;DHT22;8182;55.648;13.208;2024-01-11T14:49:29;-0.40;1.00
16154;DHT22;8182;55.648;13.208;2024-01-11T14:51:56;-0.50;1.00
16154;DHT22;8182;55.648;13.208;2024-01-11T14:54:23;-0.50;1.00
16154;DHT22;8182;55.648;13.208;2024-01-11T14:56:50;-0.60;1.00
16154;DHT22;8182;55.648;13.208;2024-01-11T14:59:18;-0.70;1.00
16154;DHT22;8182;55.648;13.208;2024-01-11T15:01:46;-0.60;1.00
16154;DHT22;8182;55.648;13.208;2024-01-11T15:04:13;-0.60;1.00
16154;DHT22;8182;55.648;13.208;2024-01-11T15:06:49;-0.70;1.00
16154;DHT22;8182;55.648;13.208;2024-01-11T15:09:16;-0.70;1.00
16154;DHT22;8182;55.648;13.208;2024-01-11T15:11:43;-0.60;1.00
16154;DHT22;8182;55.648;13.208;2024-01-11T15:14:09;-0.70;1.00
16154;DHT22;8182;55.648;13.208;2024-01-11T15:16:39;-0.90;1.00
16154;DHT22;8182;55.648;13.208;2024-01-11T15:19:06;-1.10;1.00
16154;DHT22;8182;55.648;13.208;2024-01-11T15:21:32;-0.90;1.00
16154;DHT22;8182;55.648;13.208;2024-01-11T15:23:59;-0.90;1.00
16154;DHT22;8182;55.648;13.208;2024-01-11T15:26:27;-1.00;1.00
16154;DHT22;8182;55.648;13.208;2024-01-11T15:28:54;-1.20;1.00
16154;DHT22;8182;55.648;13.208;2024-01-11T15:31:21;-1.30;1.00
16154;DHT22;8182;55.648;13.208;2024-01-11T15:33:50;-1.50;1.00
16154;DHT22;8182;55.648;13.208;2024-01-11T15:36:18;-1.50;1.00
16154;DHT22;8182;55.648;13.208;2024-01-11T15:38:45;-1.60;1.00
16154;DHT22;8182;55.648;13.208;2024-01-11T15:41:12;-1.60;1.00
16154;DHT22;8182;55.648;13.208;2024-01-11T15:43:39;-1.50;1.00
16154;DHT22;8182;55.648;13.208;2024-01-11T15:46:06;-1.50;1.00
16154;DHT22;8182;55.648;13.208;2024-01-11T15:48:33;-1.60;1.00
16154;DHT22;8182;55.648;13.208;2024-01-11T15:51:02;-1.60;1.00
16154;DHT22;8182;55.648;13.208;2024-01-11T15:53:29;-1.70;1.00
16154;DHT22;8182;55.648;13.208;2024-01-11T15:55:56;-1.80;1.00
16154;DHT22;8182;55.648;13.208;2024-01-11T15:58:23;-1.80;1.00
16154;DHT22;8182;55.648;13.208;2024-01-11T16:00:50;-1.80;1.00
16154;DHT22;8182;55.648;13.208;2024-01-11T16:03:17;-1.90;1.00